createdAt,value
2023-04-03T00:01:45.813Z,73.07
2023-04-03T00:04:15.898Z,72.86
2023-04-03T00:06:42.763Z,72.90
2023-04-03T00:09:10.643Z,73.17
2023-04-03T00:11:37.531Z,73.05
2023-04-03T00:14:04.321Z,72.93
2023-04-03T00:16:31.396Z,73.04
2023-04-03T00:18:58.164Z,73.31
2023-04-03T00:21:25.290Z,73.32
2023-04-03T00:23:52.096Z,73.25
2023-04-03T00:26:18.903Z,73.17
2023-04-03T00:28:46.142Z,73.21
2023-04-03T00:31:15.036Z,73.30
2023-04-03T00:33:41.891Z,73.29
2023-04-03T00:36:11.084Z,73.23
2023-04-03T00:38:38.025Z,73.03
2023-04-03T00:41:04.896Z,72.97
2023-04-03T00:43:31.802Z,72.99
2023-04-03T00:45:59.455Z,72.70
2023-04-03T00:48:34.005Z,72.59
2023-04-03T00:51:00.783Z,72.58
2023-04-03T00:53:29.311Z,72.27
2023-04-03T00:55:56.498Z,72.30
2023-04-03T00:58:23.904Z,72.12
2023-04-03T01:00:57.312Z,72.12
2023-04-03T01:03:24.608Z,71.84
2023-04-03T01:05:51.737Z,71.83
2023-04-03T01:08:18.583Z,71.85
2023-04-03T01:10:46.445Z,71.94
2023-04-03T01:13:25.035Z,72.00
2023-04-03T01:15:51.917Z,71.78
2023-04-03T01:18:19.010Z,71.61
2023-04-03T01:20:53.527Z,71.77
2023-04-03T01:23:41.993Z,71.84
2023-04-03T01:26:10.145Z,71.63
2023-04-03T01:28:37.220Z,71.85
2023-04-03T01:31:16.766Z,71.51
2023-04-03T01:33:45.901Z,71.57
2023-04-03T01:36:15.774Z,71.49
2023-04-03T01:38:42.625Z,71.54
2023-04-03T01:41:09.511Z,71.49
2023-04-03T01:43:37.127Z,71.61
2023-04-03T01:46:04.176Z,71.69
2023-04-03T01:48:30.979Z,71.53
2023-04-03T01:50:58.039Z,71.73
2023-04-03T01:53:25.061Z,71.62
2023-04-03T01:55:51.849Z,71.81
2023-04-03T01:58:19.110Z,71.42
2023-04-03T02:00:49.222Z,71.57
2023-04-03T02:03:16.562Z,71.50
2023-04-03T02:05:43.723Z,71.39
2023-04-03T02:08:11.298Z,71.70
2023-04-03T02:10:38.456Z,71.70
2023-04-03T02:13:06.441Z,71.42
2023-04-03T02:15:33.283Z,71.45
2023-04-03T02:18:00.166Z,71.60
2023-04-03T02:20:27.469Z,71.47
2023-04-03T02:22:54.276Z,71.43
2023-04-03T02:25:21.846Z,71.60
2023-04-03T02:27:48.716Z,71.39
2023-04-03T02:30:16.017Z,71.53
2023-04-03T02:32:43.618Z,71.42
2023-04-03T02:35:11.167Z,71.31
2023-04-03T02:37:39.288Z,71.16
2023-04-03T02:40:07.471Z,71.38
2023-04-03T02:42:35.688Z,71.43
2023-04-03T02:45:03.830Z,71.41
2023-04-03T02:47:30.710Z,71.74
2023-04-03T02:49:57.634Z,71.48
2023-04-03T02:52:24.461Z,71.68
2023-04-03T02:54:53.401Z,71.51
2023-04-03T02:57:21.228Z,71.64
2023-04-03T02:59:48.141Z,71.56
2023-04-03T03:02:14.923Z,71.74
2023-04-03T03:04:41.734Z,71.87
2023-04-03T03:07:08.546Z,71.63
2023-04-03T03:09:35.408Z,71.73
2023-04-03T03:12:02.251Z,71.66
2023-04-03T03:14:30.414Z,71.77
2023-04-03T03:16:57.248Z,72.14
2023-04-03T03:19:24.009Z,72.09
2023-04-03T03:21:52.347Z,72.05
2023-04-03T03:24:19.105Z,72.25
2023-04-03T03:26:46.026Z,72.09
2023-04-03T03:29:12.960Z,72.25
2023-04-03T03:31:40.105Z,72.49
2023-04-03T03:34:07.645Z,72.34
2023-04-03T03:36:34.461Z,72.51
2023-04-03T03:39:01.462Z,72.72
2023-04-03T03:41:28.412Z,72.66
2023-04-03T03:43:55.334Z,72.43
2023-04-03T03:46:23.517Z,72.47
2023-04-03T03:48:51.042Z,72.72
2023-04-03T03:51:17.820Z,72.96
2023-04-03T03:53:44.887Z,72.85
2023-04-03T03:56:15.612Z,73.18
2023-04-03T03:58:43.337Z,73.24
2023-04-03T04:01:10.265Z,73.00
2023-04-03T04:03:43.947Z,73.19
2023-04-03T04:06:13.935Z,73.27
2023-04-03T04:08:40.953Z,73.37
2023-04-03T04:11:10.563Z,73.45
2023-04-03T04:13:38.513Z,73.51
2023-04-03T04:16:05.711Z,73.36
2023-04-03T04:18:33.725Z,73.60
2023-04-03T04:21:00.745Z,73.63
2023-04-03T04:23:28.307Z,73.46
2023-04-03T04:25:55.538Z,73.56
2023-04-03T04:28:23.121Z,73.91
2023-04-03T04:30:52.662Z,73.63
2023-04-03T04:33:21.234Z,73.83
2023-04-03T04:35:48.652Z,73.88
2023-04-03T04:38:17.023Z,74.12
2023-04-03T04:40:43.863Z,74.02
2023-04-03T04:43:12.269Z,74.10
2023-04-03T04:45:39.376Z,74.01
2023-04-03T04:48:06.887Z,74.45
2023-04-03T04:50:33.774Z,74.73
2023-04-03T04:53:00.571Z,74.87
2023-04-03T04:55:27.386Z,75.21
2023-04-03T04:57:54.217Z,75.25
2023-04-03T05:00:22.042Z,75.27
2023-04-03T05:02:49.216Z,75.05
2023-04-03T05:05:16.783Z,74.95
2023-04-03T05:07:43.779Z,75.06
2023-04-03T05:10:11.148Z,75.02
2023-04-03T05:12:39.006Z,74.98
2023-04-03T05:15:06.632Z,74.77
2023-04-03T05:17:34.498Z,74.63
2023-04-03T05:20:03.883Z,74.68
2023-04-03T05:22:31.883Z,75.03
2023-04-03T05:25:06.108Z,74.92
2023-04-03T05:27:34.882Z,74.80
2023-04-03T05:30:02.784Z,74.40
2023-04-03T05:32:31.767Z,74.78
2023-04-03T05:35:12.674Z,74.70
2023-04-03T05:37:43.641Z,74.53
2023-04-03T05:40:12.018Z,74.77
2023-04-03T05:42:43.138Z,74.59
2023-04-03T05:45:10.454Z,74.79
2023-04-03T05:47:37.588Z,74.46
2023-04-03T05:50:07.532Z,74.67
2023-04-03T05:52:35.290Z,74.36
2023-04-03T05:55:02.606Z,74.66
2023-04-03T05:57:32.021Z,74.30
2023-04-03T05:59:59.665Z,74.30
2023-04-03T06:02:27.830Z,74.21
2023-04-03T06:04:57.976Z,74.16
2023-04-03T06:07:28.545Z,74.22
2023-04-03T06:09:56.978Z,74.15
2023-04-03T06:12:24.388Z,74.18
2023-04-03T06:14:52.445Z,73.74
2023-04-03T06:17:20.014Z,73.80
2023-04-03T06:19:47.962Z,73.74
2023-04-03T06:22:15.961Z,73.58
2023-04-03T06:24:42.969Z,73.21
2023-04-03T06:27:10.863Z,73.31
2023-04-03T06:29:38.678Z,72.93
2023-04-03T06:32:05.671Z,72.65
2023-04-03T06:34:32.767Z,72.01
2023-04-03T06:36:59.792Z,71.94
2023-04-03T06:39:26.919Z,71.91
2023-04-03T06:41:54.044Z,71.37
2023-04-03T06:44:29.888Z,70.88
2023-04-03T06:46:56.781Z,70.91
2023-04-03T06:49:23.853Z,70.58
2023-04-03T06:51:51.146Z,70.46
2023-04-03T06:54:21.587Z,70.30
2023-04-03T06:56:51.168Z,69.77
2023-04-03T06:59:19.400Z,69.58
2023-04-03T07:01:46.619Z,69.42
2023-04-03T07:04:14.081Z,69.47
2023-04-03T07:06:41.809Z,69.59
2023-04-03T07:09:08.952Z,69.37
2023-04-03T07:11:35.924Z,69.05
2023-04-03T07:14:02.997Z,68.83
2023-04-03T07:16:32.178Z,68.57
2023-04-03T07:18:59.009Z,68.12
2023-04-03T07:21:25.942Z,67.61
2023-04-03T07:23:52.668Z,67.20
2023-04-03T07:26:19.784Z,66.96
2023-04-03T07:28:49.965Z,66.99
2023-04-03T07:31:18.450Z,67.77
2023-04-03T07:33:46.381Z,67.18
2023-04-03T07:36:15.980Z,65.80
2023-04-03T07:38:42.829Z,65.34
2023-04-03T07:41:12.284Z,65.53
2023-04-03T07:43:40.704Z,65.61
2023-04-03T07:46:07.857Z,65.66
2023-04-03T07:48:36.368Z,64.74
2023-04-03T07:51:03.768Z,64.22
2023-04-03T07:53:34.220Z,63.26
2023-04-03T07:56:01.284Z,63.01
2023-04-03T07:58:28.204Z,62.55
2023-04-03T08:00:55.077Z,62.38
2023-04-03T08:03:22.484Z,62.57
2023-04-03T08:05:50.505Z,62.19
2023-04-03T08:08:20.074Z,61.84
2023-04-03T08:10:52.173Z,62.08
2023-04-03T08:13:19.629Z,61.27
2023-04-03T08:15:46.533Z,61.04
2023-04-03T08:18:13.938Z,60.56
2023-04-03T08:20:41.724Z,60.05
2023-04-03T08:23:09.002Z,59.80
2023-04-03T08:25:39.339Z,58.41
2023-04-03T08:28:06.340Z,58.49
2023-04-03T08:30:33.256Z,58.80
2023-04-03T08:33:02.495Z,58.19
2023-04-03T08:35:29.734Z,57.92
2023-04-03T08:37:57.786Z,57.98
2023-04-03T08:40:25.069Z,57.42
2023-04-03T08:42:58.253Z,57.87
2023-04-03T08:45:31.339Z,57.89
2023-04-03T08:48:07.052Z,58.68
2023-04-03T08:50:45.268Z,58.37
2023-04-03T08:53:14.180Z,58.88
2023-04-03T08:55:41.920Z,59.08
2023-04-03T08:58:13.652Z,59.06
2023-04-03T09:00:47.150Z,59.03
2023-04-03T09:03:17.520Z,59.14
2023-04-03T09:05:52.493Z,58.34
2023-04-03T09:08:23.112Z,58.10
2023-04-03T09:10:50.143Z,58.31
2023-04-03T09:13:26.573Z,58.10
2023-04-03T09:15:55.056Z,58.33
2023-04-03T09:18:23.427Z,58.29
2023-04-03T09:20:50.335Z,58.19
2023-04-03T09:23:26.359Z,57.44
2023-04-03T09:25:55.822Z,56.46
2023-04-03T09:28:22.779Z,56.34
2023-04-03T09:30:49.750Z,56.46
2023-04-03T09:33:16.751Z,56.52
2023-04-03T09:35:50.979Z,56.93
2023-04-03T09:38:19.390Z,56.46
2023-04-03T09:40:47.051Z,55.33
2023-04-03T09:43:18.232Z,54.84
2023-04-03T09:45:46.222Z,55.12
2023-04-03T09:48:17.437Z,54.95
2023-04-03T09:51:06.187Z,54.60
2023-04-03T09:53:38.029Z,54.92
2023-04-03T09:56:17.055Z,55.05
2023-04-03T09:58:53.524Z,55.03
2023-04-03T10:01:34.130Z,54.00
2023-04-03T10:04:14.659Z,53.42
2023-04-03T10:06:44.670Z,53.49
2023-04-03T10:09:17.972Z,53.52
2023-04-03T10:11:59.086Z,52.96
2023-04-03T10:14:26.688Z,52.94
2023-04-03T10:17:12.600Z,52.89
2023-04-03T10:19:53.928Z,52.85
2023-04-03T10:22:24.056Z,53.17
2023-04-03T10:24:58.703Z,53.14
2023-04-03T10:27:44.481Z,52.88
2023-04-03T10:30:30.220Z,52.67
2023-04-03T10:33:09.557Z,52.82
2023-04-03T10:35:49.827Z,52.71
2023-04-03T10:38:17.081Z,53.17
2023-04-03T10:40:49.192Z,53.35
2023-04-03T10:43:19.412Z,53.30
2023-04-03T10:45:58.625Z,53.86
2023-04-03T10:48:44.502Z,53.62
2023-04-03T10:51:25.335Z,54.03
2023-04-03T10:54:01.748Z,54.19
2023-04-03T10:56:33.657Z,54.50
2023-04-03T10:59:07.420Z,54.32
2023-04-03T11:01:35.209Z,54.87
2023-04-03T11:04:02.595Z,54.90
2023-04-03T11:06:52.944Z,54.86
2023-04-03T11:09:21.851Z,54.41
2023-04-03T11:11:49.370Z,55.12
2023-04-03T11:14:19.464Z,55.16
2023-04-03T11:16:54.289Z,54.98
2023-04-03T11:19:24.827Z,54.68
2023-04-03T11:22:05.208Z,54.99
2023-04-03T11:24:32.874Z,55.00
2023-04-03T11:26:59.949Z,55.18
2023-04-03T11:29:35.885Z,55.42
2023-04-03T11:32:03.281Z,55.45
2023-04-03T11:34:37.717Z,55.52
2023-04-03T11:37:05.977Z,55.20
2023-04-03T11:39:33.454Z,55.57
2023-04-03T11:42:24.546Z,55.54
2023-04-03T11:44:51.808Z,55.57
2023-04-03T11:47:38.482Z,55.46
2023-04-03T11:50:06.520Z,55.66
2023-04-03T11:52:41.463Z,55.93
2023-04-03T11:55:26.062Z,55.73
2023-04-03T11:57:59.308Z,56.03
2023-04-03T12:00:44.637Z,56.16
2023-04-03T12:03:31.725Z,55.65
2023-04-03T12:06:08.243Z,54.86
2023-04-03T12:08:35.457Z,54.47
2023-04-03T12:11:14.890Z,53.72
2023-04-03T12:13:42.970Z,53.27
2023-04-03T12:16:23.489Z,52.85
2023-04-03T12:18:50.484Z,52.45
2023-04-03T12:21:20.098Z,52.81
2023-04-03T12:23:58.387Z,52.99
2023-04-03T12:26:32.441Z,52.86
2023-04-03T12:29:32.080Z,53.17
2023-04-03T12:32:07.433Z,53.77
2023-04-03T12:34:42.365Z,53.89
2023-04-03T12:37:23.138Z,53.75
2023-04-03T12:40:10.840Z,54.18
2023-04-03T12:42:44.221Z,54.25
2023-04-03T12:45:11.279Z,54.35
2023-04-03T12:47:39.426Z,54.56
2023-04-03T12:50:14.623Z,54.40
2023-04-03T12:52:43.353Z,54.50
2023-04-03T12:55:17.569Z,54.38
2023-04-03T12:57:44.579Z,54.22
2023-04-03T13:00:44.439Z,54.42
2023-04-03T13:03:23.022Z,54.07
2023-04-03T13:05:49.967Z,54.13
2023-04-03T13:08:17.228Z,53.96
2023-04-03T13:10:57.645Z,54.69
2023-04-03T13:13:24.653Z,55.14
2023-04-03T13:15:51.917Z,55.08
2023-04-03T13:18:25.639Z,55.26
2023-04-03T13:20:53.086Z,55.72
2023-04-03T13:23:21.768Z,56.12
2023-04-03T13:25:48.716Z,56.51
2023-04-03T13:28:20.803Z,56.74
2023-04-03T13:30:58.310Z,56.56
2023-04-03T13:33:26.764Z,57.11
2023-04-03T13:35:58.190Z,57.12
2023-04-03T13:38:32.711Z,57.07
2023-04-03T13:41:01.961Z,57.65
2023-04-03T13:43:29.658Z,57.47
2023-04-03T13:46:07.570Z,57.31
2023-04-03T13:48:45.478Z,57.14
2023-04-03T13:51:16.271Z,57.19
2023-04-03T13:53:49.153Z,57.03
2023-04-03T13:56:22.201Z,57.00
2023-04-03T13:59:17.443Z,56.69
2023-04-03T14:01:49.840Z,56.56
2023-04-03T14:04:17.042Z,56.45
2023-04-03T14:06:43.964Z,56.19
2023-04-03T14:09:10.862Z,56.03
2023-04-03T14:11:37.664Z,57.08
2023-04-03T14:14:07.627Z,57.24
2023-04-03T14:16:35.615Z,56.96
2023-04-03T14:19:02.474Z,56.95
2023-04-03T14:21:29.272Z,57.05
2023-04-03T14:23:56.065Z,57.18
2023-04-03T14:26:23.747Z,57.55
2023-04-03T14:28:51.595Z,57.72
2023-04-03T14:31:18.900Z,57.82
2023-04-03T14:33:45.887Z,57.91
2023-04-03T14:36:14.231Z,58.28
2023-04-03T14:38:41.506Z,58.44
2023-04-03T14:41:16.087Z,58.43
2023-04-03T14:43:44.109Z,58.83
2023-04-03T14:46:15.513Z,59.19
2023-04-03T14:48:42.475Z,59.40
2023-04-03T14:51:11.496Z,59.60
2023-04-03T14:53:39.361Z,60.06
2023-04-03T14:56:11.462Z,60.10
2023-04-03T14:58:38.347Z,60.44
2023-04-03T15:01:05.397Z,60.44
2023-04-03T15:03:32.301Z,60.38
2023-04-03T15:06:00.408Z,60.43
2023-04-03T15:08:27.496Z,60.58
2023-04-03T15:10:54.273Z,60.35
2023-04-03T15:13:21.707Z,60.47
2023-04-03T15:15:48.554Z,60.13
2023-04-03T15:18:16.858Z,59.93
2023-04-03T15:20:44.477Z,59.88
2023-04-03T15:23:14.844Z,59.91
2023-04-03T15:25:41.711Z,59.95
2023-04-03T15:28:09.765Z,60.15
2023-04-03T15:30:38.172Z,59.65
2023-04-03T15:33:05.120Z,58.29
2023-04-03T15:35:32.105Z,57.41
2023-04-03T15:37:58.975Z,55.58
2023-04-03T15:40:26.910Z,54.93
2023-04-03T15:42:54.465Z,53.47
2023-04-03T15:45:22.432Z,52.88
2023-04-03T15:47:49.238Z,52.17
2023-04-03T15:50:16.216Z,51.42
2023-04-03T15:52:43.124Z,51.42
2023-04-03T15:55:10.073Z,51.74
2023-04-03T16:00:04.797Z,52.93
2023-04-03T16:02:34.088Z,54.09
2023-04-03T16:05:01.013Z,54.92
2023-04-03T16:07:28.025Z,55.49
2023-04-03T16:09:54.929Z,56.16
2023-04-03T16:12:21.733Z,56.80
2023-04-03T16:14:48.580Z,56.82
2023-04-03T16:17:15.402Z,57.08
2023-04-03T16:19:42.096Z,57.53
2023-04-03T16:22:09.090Z,57.75
2023-04-03T16:24:36.916Z,58.20
2023-04-03T16:27:03.817Z,58.33
2023-04-03T16:29:30.631Z,58.57
2023-04-03T16:31:57.805Z,58.89
2023-04-03T16:34:26.760Z,58.74
2023-04-03T16:36:53.631Z,58.87
2023-04-03T16:39:20.700Z,59.30
2023-04-03T16:41:47.772Z,59.25
2023-04-03T16:44:14.945Z,59.30
2023-04-03T16:46:41.832Z,59.46
2023-04-03T16:49:08.803Z,59.69
2023-04-03T16:51:35.809Z,59.82
2023-04-03T16:54:02.707Z,59.91
2023-04-03T16:56:29.604Z,59.92
2023-04-03T16:58:56.750Z,59.96
2023-04-03T17:01:23.781Z,60.17
2023-04-03T17:03:50.708Z,60.51
2023-04-03T17:06:18.679Z,60.59
2023-04-03T17:08:46.221Z,60.54
2023-04-03T17:11:26.974Z,60.99
2023-04-03T17:13:53.892Z,61.35
2023-04-03T17:16:20.812Z,61.20
2023-04-03T17:18:47.692Z,61.59
2023-04-03T17:21:15.026Z,61.53
2023-04-03T17:23:42.386Z,61.84
2023-04-03T17:26:09.430Z,61.91
2023-04-03T17:28:37.182Z,61.85
2023-04-03T17:31:04.195Z,61.77
2023-04-03T17:33:31.642Z,61.81
2023-04-03T17:35:59.129Z,62.21
2023-04-03T17:38:25.968Z,62.17
2023-04-03T17:40:52.739Z,62.16
2023-04-03T17:43:19.614Z,62.37
2023-04-03T17:45:46.702Z,62.67
2023-04-03T17:51:07.933Z,63.17
2023-04-03T17:53:34.788Z,63.20
2023-04-03T17:56:08.342Z,63.13
2023-04-03T17:58:35.758Z,63.43
2023-04-03T18:01:13.012Z,63.34
2023-04-03T18:03:40.475Z,63.50
2023-04-03T18:06:08.842Z,63.57
2023-04-03T18:08:36.752Z,63.71
2023-04-03T18:11:03.941Z,64.12
2023-04-03T18:13:30.763Z,63.82
2023-04-03T18:15:57.637Z,64.21
2023-04-03T18:18:24.471Z,64.37
2023-04-03T18:20:52.400Z,64.28
2023-04-03T18:23:19.427Z,64.35
2023-04-03T18:25:46.254Z,64.49
2023-04-03T18:28:13.082Z,64.85
2023-04-03T18:30:40.097Z,64.78
2023-04-03T18:33:07.111Z,64.91
2023-04-03T18:35:33.924Z,65.36
2023-04-03T18:38:00.739Z,65.25
2023-04-03T18:40:27.872Z,65.84
2023-04-03T18:42:54.731Z,65.87
2023-04-03T18:45:22.790Z,65.90
2023-04-03T18:47:49.721Z,66.27
2023-04-03T18:50:17.203Z,66.02
2023-04-03T18:52:44.054Z,66.19
2023-04-03T18:55:15.929Z,66.44
2023-04-03T18:57:42.777Z,66.83
2023-04-03T19:00:10.495Z,66.84
2023-04-03T19:02:37.593Z,66.88
2023-04-03T19:05:05.272Z,66.84
2023-04-03T19:07:32.013Z,67.27
2023-04-03T19:09:58.836Z,66.89
2023-04-03T19:12:26.277Z,66.95
2023-04-03T19:14:53.141Z,67.36
2023-04-03T19:17:19.960Z,67.24
2023-04-03T19:19:46.704Z,67.17
2023-04-03T19:22:13.389Z,67.36
2023-04-03T19:24:40.114Z,67.41
2023-04-03T19:27:06.929Z,67.65
2023-04-03T19:29:33.690Z,67.73
2023-04-03T19:32:00.591Z,68.06
2023-04-03T19:34:27.384Z,68.19
2023-04-03T19:36:55.604Z,68.39
2023-04-03T19:39:22.418Z,68.47
2023-04-03T19:41:49.748Z,68.29
2023-04-03T19:44:16.774Z,68.49
2023-04-03T19:46:50.741Z,68.61
2023-04-03T19:49:18.301Z,68.69
2023-04-03T19:51:45.122Z,68.83
2023-04-03T19:54:12.342Z,68.89
2023-04-03T19:56:39.094Z,68.69
2023-04-03T19:59:06.010Z,68.87
2023-04-03T20:01:34.962Z,68.77
2023-04-03T20:04:02.278Z,69.04
2023-04-03T20:06:29.253Z,68.71
2023-04-03T20:08:56.190Z,68.73
2023-04-03T20:11:23.343Z,68.78
2023-04-03T20:16:42.833Z,69.00
2023-04-03T20:19:09.784Z,68.97
2023-04-03T20:21:36.631Z,69.05
2023-04-03T20:24:04.006Z,68.86
2023-04-03T20:26:31.878Z,69.12
2023-04-03T20:28:59.751Z,68.92
2023-04-03T20:31:27.234Z,68.98
2023-04-03T20:33:54.175Z,69.47
2023-04-03T20:36:22.103Z,69.38
2023-04-03T20:38:49.252Z,69.19
2023-04-03T20:41:16.442Z,69.57
2023-04-03T20:43:44.097Z,69.70
2023-04-03T20:46:20.490Z,69.39
2023-04-03T20:48:48.281Z,69.70
2023-04-03T20:51:16.231Z,69.90
2023-04-03T20:53:43.329Z,69.97
2023-04-03T20:56:10.181Z,69.72
2023-04-03T20:58:39.075Z,69.98
2023-04-03T21:01:22.947Z,70.00
2023-04-03T21:03:50.877Z,70.02
2023-04-03T21:06:36.762Z,69.95
2023-04-03T21:09:22.502Z,70.31
2023-04-03T21:12:08.243Z,70.30
2023-04-03T21:14:53.887Z,70.43
2023-04-03T21:17:20.694Z,70.61
2023-04-03T21:19:48.945Z,70.59
2023-04-03T21:22:16.371Z,70.73
2023-04-03T21:24:43.493Z,70.69
2023-04-03T21:27:10.379Z,70.61
2023-04-03T21:29:37.619Z,71.07
2023-04-03T21:32:04.525Z,71.32
2023-04-03T21:34:31.383Z,71.29
2023-04-03T21:37:02.312Z,71.36
2023-04-03T21:39:29.232Z,71.42
2023-04-03T21:45:20.804Z,71.80
2023-04-03T21:47:47.944Z,71.95
2023-04-03T21:50:14.770Z,72.00
2023-04-03T21:52:41.577Z,72.24
2023-04-03T21:55:09.087Z,72.04
2023-04-03T21:57:36.410Z,72.04
2023-04-03T22:00:05.092Z,72.12
2023-04-03T22:02:34.093Z,72.22
2023-04-03T22:05:00.939Z,72.30
2023-04-03T22:07:27.667Z,72.28
2023-04-03T22:09:54.525Z,72.53
2023-04-03T22:12:21.275Z,72.43
2023-04-03T22:14:48.247Z,72.65
2023-04-03T22:17:15.075Z,72.50
2023-04-03T22:19:41.957Z,72.68
2023-04-03T22:22:09.220Z,72.88
2023-04-03T22:24:36.019Z,72.96
2023-04-03T22:27:03.077Z,72.70
2023-04-03T22:29:29.891Z,72.98
2023-04-03T22:31:56.727Z,72.90
2023-04-03T22:34:23.902Z,72.99
2023-04-03T22:36:51.056Z,72.91
2023-04-03T22:39:19.659Z,72.96
2023-04-03T22:41:46.493Z,73.21
2023-04-03T22:44:13.379Z,72.95
2023-04-03T22:46:40.210Z,72.98
2023-04-03T22:49:07.781Z,73.03
2023-04-03T22:51:34.609Z,73.16
2023-04-03T22:54:01.685Z,72.96
2023-04-03T22:56:28.494Z,73.25
2023-04-03T22:58:56.147Z,73.08
2023-04-03T23:01:25.388Z,73.32
2023-04-03T23:03:52.313Z,73.37
2023-04-03T23:06:19.106Z,73.38
2023-04-03T23:08:45.877Z,73.19
2023-04-03T23:11:12.847Z,73.51
2023-04-03T23:13:39.781Z,73.34
2023-04-03T23:16:06.936Z,73.55
2023-04-03T23:18:34.064Z,73.33
2023-04-03T23:21:01.807Z,73.66
2023-04-03T23:23:28.792Z,73.37
2023-04-03T23:25:59.468Z,73.29
2023-04-03T23:28:26.743Z,73.52
2023-04-03T23:30:57.278Z,73.72
2023-04-03T23:33:24.015Z,73.57
2023-04-03T23:35:52.341Z,73.48
2023-04-03T23:38:19.194Z,73.52
2023-04-03T23:40:46.351Z,73.49
2023-04-03T23:43:13.100Z,73.67
2023-04-03T23:45:40.032Z,73.78
2023-04-03T23:48:06.882Z,73.90
2023-04-03T23:50:33.890Z,73.98
2023-04-03T23:53:01.157Z,73.86
2023-04-03T23:55:28.175Z,73.92
2023-04-03T23:57:54.984Z,73.96
